Time;durP1;ratioP1;P1;durP2;ratioP2;P2;SDS_P1;SDS_P2;PMS_P1;PMS_P2;Temp;Humidity;BMP_temperature;BMP_pressure;BME280_temperature;BME280_humidity;BME280_pressure;Samples;Min_cycle;Max_cycle;Signal;HPM_P1;HPM_P2
2024/02/21 00:01:25;;;;;;;23.27;7.40;;;;;;;9.15;100.00;102119.72;5109193;28;20071;-71
2024/02/21 00:04:13;;;;;;;17.98;6.63;;;;;;;9.16;100.00;102124.97;5098750;28;20051;-71
2024/02/21 00:07:02;;;;;;;23.27;7.82;;;;;;;9.16;100.00;102115.94;5083270;28;20415;-70
2024/02/21 00:09:50;;;;;;;20.77;8.07;;;;;;;9.14;100.00;102108.03;5088100;28;20044;-70
2024/02/21 00:12:38;;;;;;;22.20;7.35;;;;;;;9.12;100.00;102103.88;5081880;28;20050;-71
2024/02/21 00:15:26;;;;;;;18.30;6.93;;;;;;;9.13;100.00;102110.97;5083275;27;20538;-71
2024/02/21 00:18:14;;;;;;;17.10;6.63;;;;;;;9.12;100.00;102115.56;5122052;27;20055;-71
2024/02/21 00:21:02;;;;;;;18.27;7.00;;;;;;;9.13;100.00;102106.34;5100834;28;20411;-71
2024/02/21 00:23:50;;;;;;;20.73;7.03;;;;;;;9.13;100.00;102108.25;5100659;28;20071;-71
2024/02/21 00:26:38;;;;;;;16.52;6.57;;;;;;;9.14;100.00;102118.09;5092194;28;20185;-73
2024/02/21 00:29:27;;;;;;;18.63;6.68;;;;;;;9.14;100.00;102109.94;5094820;28;20480;-71
2024/02/21 00:32:15;;;;;;;23.80;6.90;;;;;;;9.14;100.00;102085.47;5094770;28;20444;-71
2024/02/21 00:35:03;;;;;;;15.90;6.35;;;;;;;9.15;100.00;102087.09;5085690;27;20088;-70
2024/02/21 00:37:52;;;;;;;18.73;6.28;;;;;;;9.14;100.00;102077.28;5120718;27;20044;-70
2024/02/21 00:40:40;;;;;;;19.77;6.93;;;;;;;9.12;100.00;102066.63;5114018;28;20042;-71
2024/02/21 00:43:28;;;;;;;21.10;7.03;;;;;;;9.13;100.00;102062.03;5094975;28;20043;-72
2024/02/21 00:46:16;;;;;;;14.23;6.25;;;;;;;9.13;100.00;102062.84;5101267;28;20581;-71
2024/02/21 00:49:05;;;;;;;17.30;5.78;;;;;;;9.13;100.00;102064.75;5100062;28;20078;-73
2024/02/21 00:51:53;;;;;;;16.70;6.65;;;;;;;9.10;100.00;102049.72;5085492;28;20044;-71
2024/02/21 00:54:41;;;;;;;19.13;6.78;;;;;;;9.08;100.00;102053.72;5090944;28;20133;-72
2024/02/21 00:57:40;;;;;;;16.40;6.93;;;;;;;9.08;100.00;102048.28;5078351;28;20040;-72
2024/02/21 01:00:28;;;;;;;19.38;6.75;;;;;;;9.08;100.00;102048.28;5102228;27;20051;-72
2024/02/21 01:03:16;;;;;;;17.88;6.60;;;;;;;9.08;100.00;102048.28;5120178;27;20134;-71
2024/02/21 01:06:04;;;;;;;23.05;7.13;;;;;;;9.07;100.00;102052.06;5097453;27;20587;-71
2024/02/21 01:08:55;;;;;;;21.75;6.95;;;;;;;9.06;100.00;102039.53;5064941;28;20043;-72
2024/02/21 01:11:46;;;;;;;17.25;5.63;;;;;;;9.04;100.00;102049.78;5066543;28;20130;-71
2024/02/21 01:14:34;;;;;;;15.65;6.18;;;;;;;9.06;100.00;102050.41;5098953;27;20044;-72
2024/02/21 01:17:22;;;;;;;19.40;6.90;;;;;;;9.05;100.00;102049.56;5105219;27;20090;-71
2024/02/21 01:20:10;;;;;;;15.00;6.07;;;;;;;9.07;100.00;102052.91;5134627;27;20043;-72
2024/02/21 01:22:58;;;;;;;16.88;5.95;;;;;;;9.10;100.00;102038.84;5106249;27;20113;-71
2024/02/21 01:25:46;;;;;;;16.38;6.10;;;;;;;9.09;100.00;102030.91;5110426;28;20052;-71
2024/02/21 01:28:35;;;;;;;18.40;6.10;;;;;;;9.05;100.00;102037.88;5097214;28;20056;-71
2024/02/21 01:31:23;;;;;;;14.18;6.13;;;;;;;9.04;100.00;102036.19;5117480;27;20048;-71
2024/02/21 01:34:11;;;;;;;18.77;5.80;;;;;;;9.05;100.00;102025.09;5094157;28;20126;-71
2024/02/21 01:37:04;;;;;;;14.35;6.13;;;;;;;9.06;100.00;102015.06;5078500;28;20048;-71
2024/02/21 01:39:52;;;;;;;17.55;5.32;;;;;;;9.12;100.00;102006.00;5094496;28;20492;-71
2024/02/21 01:42:43;;;;;;;14.77;5.78;;;;;;;9.08;100.00;102008.31;5057574;27;20382;-72
2024/02/21 01:45:31;;;;;;;19.30;5.90;;;;;;;9.06;100.00;102009.63;5099731;27;20168;-72
2024/02/21 01:48:20;;;;;;;17.08;5.93;;;;;;;9.08;100.00;102000.16;5080151;28;20408;-72
2024/02/21 01:51:08;;;;;;;14.90;5.80;;;;;;;9.06;100.00;102001.47;5076801;28;20511;-72
2024/02/21 01:53:57;;;;;;;17.27;5.97;;;;;;;9.05;100.00;101997.09;5106156;27;20073;-71
2024/02/21 01:56:46;;;;;;;15.63;5.38;;;;;;;9.05;100.00;101984.31;5079376;28;20144;-72
2024/02/21 01:59:35;;;;;;;18.50;5.65;;;;;;;9.04;100.00;101982.66;5097400;27;20048;-72
2024/02/21 02:02:24;;;;;;;15.90;5.53;;;;;;;9.06;100.00;101985.97;5097918;28;20075;-72
2024/02/21 02:05:12;;;;;;;13.80;5.38;;;;;;;9.05;100.00;101989.75;5098623;28;20122;-71
2024/02/21 02:08:00;;;;;;;15.43;5.53;;;;;;;9.05;100.00;101989.75;5113146;28;20040;-71
2024/02/21 02:10:49;;;;;;;21.10;6.10;;;;;;;9.01;100.00;101990.44;5076342;28;20123;-72
2024/02/21 02:13:37;;;;;;;15.05;5.32;;;;;;;9.01;100.00;101994.00;5093097;28;20177;-72
2024/02/21 02:16:25;;;;;;;15.70;5.50;;;;;;;9.02;100.00;101984.78;5092437;28;20055;-72
2024/02/21 02:19:13;;;;;;;14.40;4.75;;;;;;;9.06;100.00;101985.16;5095246;28;20059;-72
2024/02/21 02:22:09;;;;;;;19.00;5.68;;;;;;;9.08;100.00;101983.03;5098204;28;20051;-72
2024/02/21 02:24:57;;;;;;;;;;;;;;;9.06;100.00;101974.28;5093547;28;20511;-71
2024/02/21 02:27:46;;;;;;;14.63;4.90;;;;;;;9.02;100.00;101973.91;5078763;28;19992;-71
2024/02/21 02:30:38;;;;;;;11.48;4.70;;;;;;;9.05;100.00;101978.88;5110598;28;20047;-72
2024/02/21 02:33:26;;;;;;;16.77;5.60;;;;;;;9.04;100.00;101960.06;5092338;28;20132;-71
2024/02/21 02:36:14;;;;;;;16.48;5.50;;;;;;;9.02;100.00;101963.03;5102322;28;20407;-72
2024/02/21 02:39:02;;;;;;;15.55;5.18;;;;;;;9.03;100.00;101958.44;5114584;28;20496;-72
2024/02/21 02:41:50;;;;;;;12.13;4.40;;;;;;;9.00;100.00;101948.84;5096070;28;20055;-72
2024/02/21 02:44:38;;;;;;;14.68;5.10;;;;;;;9.01;100.00;101947.78;5113208;28;20172;-72
2024/02/21 02:47:26;;;;;;;15.85;5.07;;;;;;;8.99;100.00;101946.34;5098115;28;20079;-71
2024/02/21 02:50:14;;;;;;;13.60;5.32;;;;;;;8.99;100.00;101932.75;5129498;27;20040;-71
2024/02/21 02:53:02;;;;;;;11.98;4.70;;;;;;;9.00;100.00;101931.72;5098629;28;20544;-72
2024/02/21 02:55:50;;;;;;;13.63;5.45;;;;;;;9.00;100.00;101934.44;5112230;28;20514;-71
2024/02/21 02:58:38;;;;;;;17.73;5.18;;;;;;;8.98;100.00;101939.25;5114060;27;20035;-72
2024/02/21 03:01:27;;;;;;;13.82;4.47;;;;;;;8.98;100.00;101929.22;5082120;28;20510;-72
2024/02/21 03:04:15;;;;;;;12.20;5.00;;;;;;;8.98;100.00;101928.41;5111220;28;20052;-71
2024/02/21 03:07:03;;;;;;;12.77;4.45;;;;;;;8.99;100.00;101927.31;5098685;28;20101;-71
2024/02/21 03:09:53;;;;;;;16.05;5.72;;;;;;;8.99;100.00;101916.44;5093360;28;20123;-72
2024/02/21 03:12:41;;;;;;;14.27;5.25;;;;;;;9.00;100.00;101923.56;5104117;27;20039;-72
2024/02/21 03:15:29;;;;;;;14.23;4.68;;;;;;;9.01;100.00;101922.50;5077778;28;20196;-72
2024/02/21 03:18:17;;;;;;;13.90;4.88;;;;;;;9.00;100.00;101923.56;5083886;27;20047;-72
2024/02/21 03:21:05;;;;;;;14.70;4.75;;;;;;;8.99;100.00;101919.16;5098613;28;20612;-71
2024/02/21 03:23:53;;;;;;;14.25;5.32;;;;;;;8.99;100.00;101905.56;5096925;28;20054;-72
2024/02/21 03:26:41;;;;;;;15.77;5.43;;;;;;;8.99;100.00;101908.28;5111852;28;20130;-72
2024/02/21 03:29:29;;;;;;;12.50;4.85;;;;;;;9.00;100.00;101905.34;5081338;28;20398;-71
2024/02/21 03:32:17;;;;;;;13.88;4.95;;;;;;;9.00;100.00;101899.09;5091493;28;20536;-71
2024/02/21 03:35:05;;;;;;;12.07;4.78;;;;;;;9.00;100.00;101889.03;5109804;28;20150;-71
2024/02/21 03:37:53;;;;;;;14.80;5.00;;;;;;;8.99;100.00;101884.66;5097788;28;20097;-71
2024/02/21 03:40:41;;;;;;;16.10;5.53;;;;;;;8.99;100.00;101886.53;5112360;27;20081;-71
2024/02/21 03:43:29;;;;;;;14.20;4.63;;;;;;;8.99;100.00;101873.78;5111735;28;20043;-71
2024/02/21 03:46:17;;;;;;;19.42;5.65;;;;;;;8.99;100.00;101872.94;5110254;28;20492;-72
2024/02/21 03:49:05;;;;;;;12.77;4.60;;;;;;;8.97;100.00;101873.19;5084017;28;20108;-72
2024/02/21 03:51:53;;;;;;;13.40;4.97;;;;;;;8.99;100.00;101868.34;5096673;28;20050;-72
2024/02/21 03:54:41;;;;;;;14.32;5.25;;;;;;;8.99;100.00;101862.91;5096695;28;20130;-72
2024/02/21 03:57:29;;;;;;;9.55;4.30;;;;;;;9.00;100.00;101869.19;5111520;28;20503;-72
2024/02/21 04:00:18;;;;;;;11.95;4.82;;;;;;;8.98;100.00;101866.69;5109552;28;20551;-73
2024/02/21 04:03:06;;;;;;;11.07;4.72;;;;;;;8.98;100.00;101860.44;5091593;28;20127;-72
2024/02/21 04:05:54;;;;;;;12.80;4.85;;;;;;;8.96;100.00;101864.19;5076087;28;20048;-72
2024/02/21 04:08:42;;;;;;;15.60;5.20;;;;;;;8.99;100.00;101862.09;5105235;28;20036;-72
2024/02/21 04:11:30;;;;;;;10.70;5.13;;;;;;;9.02;100.00;101864.31;5119369;28;20032;-71
2024/02/21 04:14:18;;;;;;;11.32;4.53;;;;;;;8.99;100.00;101876.50;5117361;28;20047;-72
2024/02/21 04:17:07;;;;;;;14.18;5.50;;;;;;;9.00;100.00;101869.19;5109627;28;20051;-72
2024/02/21 04:20:05;;;;;;;15.68;5.22;;;;;;;8.98;100.00;101869.41;5107163;28;20097;-72
2024/02/21 04:22:53;;;;;;;11.80;5.05;;;;;;;8.99;100.00;101875.66;5121089;28;20047;-72
2024/02/21 04:25:41;;;;;;;15.18;5.57;;;;;;;8.98;100.00;101869.41;5143750;28;20063;-72
2024/02/21 04:28:29;;;;;;;14.90;4.95;;;;;;;8.99;100.00;101862.09;5094475;28;20515;-71
2024/02/21 04:31:17;;;;;;;17.25;5.38;;;;;;;8.99;100.00;101860.19;5091301;28;20391;-71
2024/02/21 04:34:07;;;;;;;13.55;5.50;;;;;;;8.99;100.00;101859.38;5073247;28;20079;-72
2024/02/21 04:36:55;;;;;;;11.95;4.57;;;;;;;8.98;100.00;101847.66;5097384;28;20047;-70
2024/02/21 04:39:43;;;;;;;13.82;5.55;;;;;;;8.99;100.00;101857.47;5096216;28;20514;-71
2024/02/21 04:42:31;;;;;;;16.83;5.57;;;;;;;8.98;100.00;101861.25;5110550;28;20177;-71
2024/02/21 04:45:19;;;;;;;16.83;5.82;;;;;;;8.99;100.00;101853.94;5095429;28;20051;-71
2024/02/21 04:48:07;;;;;;;16.75;5.93;;;;;;;8.99;100.00;101852.03;5081274;28;20139;-72
2024/02/21 04:50:55;;;;;;;12.20;5.25;;;;;;;8.99;100.00;101854.75;5061586;28;20588;-71
2024/02/21 04:53:44;;;;;;;15.13;5.50;;;;;;;9.00;100.00;101852.88;5077392;28;20136;-72
2024/02/21 04:56:32;;;;;;;15.00;5.50;;;;;;;9.01;100.00;101846.38;5080194;28;20046;-72
2024/02/21 04:59:20;;;;;;;11.05;4.60;;;;;;;9.00;100.00;101833.84;5104730;27;20079;-71
2024/02/21 05:02:07;;;;;;;13.40;5.60;;;;;;;9.00;100.00;101839.28;5097761;28;20461;-72
2024/02/21 05:04:59;;;;;;;10.45;4.55;;;;;;;8.99;100.00;101838.44;5114608;28;20505;-72
2024/02/21 05:07:48;;;;;;;14.95;5.80;;;;;;;9.00;100.00;101823.81;5111384;28;20048;-72
2024/02/21 05:10:36;;;;;;;13.65;5.15;;;;;;;8.99;100.00;101822.13;5079760;28;20059;-72
2024/02/21 05:13:24;;;;;;;10.57;4.35;;;;;;;9.01;100.00;101816.47;5105549;27;20040;-72
2024/02/21 05:16:12;;;;;;;13.48;5.38;;;;;;;9.02;100.00;101818.13;5067204;28;20047;-71
2024/02/21 05:19:00;;;;;;;13.68;5.68;;;;;;;9.00;100.00;101822.97;5064323;28;20048;-71
2024/02/21 05:21:48;;;;;;;14.60;5.78;;;;;;;8.99;100.00;101813.97;5079701;28;20483;-72
2024/02/21 05:24:36;;;;;;;16.67;5.28;;;;;;;8.96;100.00;101822.59;5079321;28;20073;-72
2024/02/21 05:27:24;;;;;;;14.32;5.63;;;;;;;8.96;100.00;101817.16;5094500;28;20052;-72
2024/02/21 05:30:12;;;;;;;10.35;3.95;;;;;;;9.03;100.00;101793.44;5115880;27;20080;-72
2024/02/21 05:33:07;;;;;;;13.25;5.40;;;;;;;9.01;100.00;101800.16;5098802;28;20498;-73
2024/02/21 05:35:55;;;;;;;15.80;5.67;;;;;;;9.00;100.00;101793.09;5099134;28;20067;-72
2024/02/21 05:38:43;;;;;;;11.13;4.80;;;;;;;9.03;100.00;101787.16;5111847;27;20123;-72
2024/02/21 05:41:31;;;;;;;15.18;6.68;;;;;;;9.03;100.00;101779.00;5099657;28;20048;-72
2024/02/21 05:44:21;;;;;;;17.20;7.30;;;;;;;8.99;100.00;101777.81;5098865;28;20047;-72
2024/02/21 05:47:11;;;;;;;17.30;7.40;;;;;;;8.92;100.00;101776.06;5100610;28;20051;-71
2024/02/21 05:49:59;;;;;;;18.55;7.60;;;;;;;8.90;100.00;101772.72;5075262;28;20040;-76
2024/02/21 05:52:53;;;;;;;23.10;7.63;;;;;;;8.87;100.00;101773.19;5097217;27;20031;-72
2024/02/21 05:55:52;;;;;;;15.10;6.88;;;;;;;8.86;100.00;101762.56;5111530;27;20032;-72
2024/02/21 05:58:41;;;;;;;16.17;6.95;;;;;;;8.89;100.00;101762.91;5077964;28;20028;-72
2024/02/21 06:01:29;;;;;;;13.60;5.80;;;;;;;8.92;100.00;101758.88;5123241;27;20051;-72
2024/02/21 06:04:17;;;;;;;13.20;5.53;;;;;;;8.94;100.00;101760.31;5100985;28;20134;-72
2024/02/21 06:07:05;;;;;;;18.58;6.90;;;;;;;8.95;100.00;101759.25;5113660;28;20048;-72
2024/02/21 06:09:53;;;;;;;14.82;5.82;;;;;;;8.98;100.00;101754.44;5098326;28;20130;-72
2024/02/21 06:12:41;;;;;;;13.30;5.70;;;;;;;8.97;100.00;101742.69;5098165;28;20048;-71
2024/02/21 06:15:29;;;;;;;13.50;5.20;;;;;;;9.00;100.00;101741.44;5063819;28;20173;-71
2024/02/21 06:18:20;;;;;;;13.50;6.13;;;;;;;8.98;100.00;101738.13;5112783;28;20409;-71
2024/02/21 06:21:10;;;;;;;9.88;4.00;;;;;;;9.03;100.00;101730.09;5082091;28;20055;-73
2024/02/21 06:23:58;;;;;;;15.05;6.32;;;;;;;9.04;100.00;101732.53;5122135;27;20043;-72
2024/02/21 06:26:47;;;;;;;10.35;4.65;;;;;;;9.01;100.00;101732.19;4741675;27;10000025;-72
2024/02/21 06:29:36;;;;;;;17.02;5.30;;;;;;;9.07;100.00;101725.84;5092930;28;20051;-71
2024/02/21 06:32:25;;;;;;;13.50;5.95;;;;;;;9.06;100.00;101729.59;5084715;28;20098;-70
2024/02/21 06:35:13;;;;;;;13.85;5.65;;;;;;;9.11;100.00;101727.00;5074557;28;20048;-71
2024/02/21 06:38:01;;;;;;;12.73;4.68;;;;;;;9.10;100.00;101742.50;5108138;28;20145;-71
2024/02/21 06:40:51;;;;;;;13.18;5.03;;;;;;;9.01;100.00;101729.50;5094703;28;20063;-71
2024/02/21 06:43:40;;;;;;;14.13;5.38;;;;;;;9.09;100.00;101731.84;5092368;28;20070;-71
2024/02/21 06:46:29;;;;;;;12.77;5.25;;;;;;;9.10;100.00;101742.50;5109520;28;20062;-71
2024/02/21 06:49:17;;;;;;;13.52;5.55;;;;;;;9.08;100.00;101746.50;5078958;28;20048;-71
2024/02/21 06:52:06;;;;;;;12.80;5.47;;;;;;;9.07;100.00;101736.72;5109263;28;20039;-70
2024/02/21 06:54:54;;;;;;;10.40;4.40;;;;;;;9.23;100.00;101727.81;5108354;28;20062;-72
2024/02/21 06:57:42;;;;;;;14.57;5.82;;;;;;;9.18;100.00;101733.16;5079048;28;20048;-72
2024/02/21 07:00:30;;;;;;;7.72;3.20;;;;;;;9.34;100.00;101734.34;5093763;28;20292;-72
2024/02/21 07:03:18;;;;;;;14.07;5.75;;;;;;;9.23;100.00;101736.00;5106252;28;20185;-72
2024/02/21 07:06:06;;;;;;;11.93;4.53;;;;;;;9.17;100.00;101734.22;5089896;28;20051;-72
2024/02/21 07:08:54;;;;;;;7.15;2.65;;;;;;;9.26;100.00;101730.09;5079495;28;20056;-70
2024/02/21 07:11:42;;;;;;;16.48;5.50;;;;;;;9.15;100.00;101722.75;5069320;28;20036;-71
2024/02/21 07:14:33;;;;;;;11.43;5.15;;;;;;;9.16;100.00;101729.84;5092199;28;20047;-71
2024/02/21 07:17:21;;;;;;;10.07;5.15;;;;;;;9.08;100.00;101722.03;5095071;28;20526;-71
2024/02/21 07:20:10;;;;;;;12.52;5.07;;;;;;;9.12;100.00;101712.38;5058406;28;20138;-71
2024/02/21 07:22:58;;;;;;;12.07;5.18;;;;;;;9.10;100.00;101715.31;5088116;28;20617;-71
2024/02/21 07:25:46;;;;;;;15.50;5.70;;;;;;;9.13;100.00;101711.28;5079043;27;20056;-69
2024/02/21 07:28:34;;;;;;;31.05;9.88;;;;;;;9.17;100.00;101712.47;5132095;27;20511;-69
2024/02/21 07:31:22;;;;;;;95.75;22.98;;;;;;;9.20;100.00;101703.84;5132875;27;20047;-70
2024/02/21 07:34:10;;;;;;;77.90;20.80;;;;;;;9.13;100.00;101708.56;5102728;27;20066;-70
2024/02/21 07:36:59;;;;;;;44.70;14.40;;;;;;;9.11;100.00;101705.25;5132743;27;20043;-70
2024/02/21 07:39:47;;;;;;;56.15;15.63;;;;;;;9.16;100.00;101694.50;5131383;27;20116;-70
2024/02/21 07:42:35;;;;;;;34.03;11.10;;;;;;;9.08;100.00;101692.97;5132760;27;20460;-71
2024/02/21 07:45:24;;;;;;;44.45;14.02;;;;;;;9.19;100.00;101691.31;5103933;27;20079;-71
2024/02/21 07:48:12;;;;;;;39.15;12.80;;;;;;;9.22;100.00;101677.25;5131765;27;20219;-70
2024/02/21 07:51:00;;;;;;;44.80;13.15;;;;;;;9.19;100.00;101675.00;5127464;28;20042;-71
2024/02/21 07:53:48;;;;;;;39.35;14.10;;;;;;;9.21;100.00;101667.41;5082688;28;20169;-71
2024/02/21 07:56:36;;;;;;;31.67;10.75;;;;;;;9.13;100.00;101659.63;5111018;28;20499;-70
2024/02/21 07:59:24;;;;;;;42.45;12.52;;;;;;;9.18;100.00;101648.88;5096205;28;20054;-71
2024/02/21 08:02:16;;;;;;;27.42;10.20;;;;;;;9.17;100.00;101649.94;5082650;28;20058;-70
2024/02/21 08:05:04;;;;;;;39.50;13.40;;;;;;;9.26;100.00;101634.91;5113337;28;20047;-71
2024/02/21 08:07:52;;;;;;;23.55;8.75;;;;;;;9.17;100.00;101644.50;5117761;28;20130;-71
2024/02/21 08:10:44;;;;;;;37.33;12.13;;;;;;;9.19;100.00;101642.38;5132537;28;20414;-70
2024/02/21 08:13:32;;;;;;;44.60;13.30;;;;;;;9.25;100.00;101644.13;5132481;28;20050;-72
2024/02/21 08:16:23;;;;;;;33.42;11.00;;;;;;;9.17;100.00;101636.34;5125997;28;20035;-69
2024/02/21 08:19:11;;;;;;;55.47;15.07;;;;;;;9.21;100.00;101640.22;5098508;28;20051;-69
2024/02/21 08:22:00;;;;;;;18.60;7.65;;;;;;;9.38;100.00;101629.47;5086868;28;20075;-70
2024/02/21 08:24:48;;;;;;;18.20;6.60;;;;;;;9.35;100.00;101630.72;5112715;28;20051;-70
2024/02/21 08:27:38;;;;;;;26.38;7.53;;;;;;;9.62;100.00;101627.50;5113259;28;20048;-70
2024/02/21 08:30:26;;;;;;;18.15;6.55;;;;;;;9.54;100.00;101616.97;5125969;28;20067;-71
2024/02/21 08:33:16;;;;;;;16.45;7.35;;;;;;;9.54;100.00;101611.53;5124629;28;20055;-68
2024/02/21 08:36:05;;;;;;;19.38;6.13;;;;;;;9.54;100.00;101600.66;5115636;28;20071;-70
2024/02/21 08:38:53;;;;;;;14.98;6.18;;;;;;;9.55;100.00;101596.88;5119005;28;20043;-71
2024/02/21 08:41:41;;;;;;;15.65;6.15;;;;;;;9.55;100.00;101596.88;5137825;28;20043;-69
2024/02/21 08:44:44;;;;;;;14.55;5.90;;;;;;;9.55;100.00;101591.44;5123522;28;20058;-69
2024/02/21 08:47:32;;;;;;;17.40;5.85;;;;;;;9.58;100.00;101593.69;5111089;28;20079;-71
2024/02/21 08:50:20;;;;;;;22.92;6.53;;;;;;;9.71;100.00;101589.81;5103253;28;20051;-70
2024/02/21 08:53:16;;;;;;;;;;;;;;;9.66;100.00;101576.13;5116653;28;20071;-71
2024/02/21 08:56:04;;;;;;;15.98;5.80;;;;;;;9.59;100.00;101571.66;5095363;28;19919;-69
2024/02/21 08:58:52;;;;;;;12.13;5.35;;;;;;;9.58;100.00;101569.19;5066973;28;20511;-69
2024/02/21 09:01:40;;;;;;;14.30;5.95;;;;;;;9.66;100.00;101560.63;5079235;28;20051;-70
2024/02/21 09:04:28;;;;;;;11.13;4.82;;;;;;;9.48;100.00;101560.84;5095618;28;20055;-70
2024/02/21 09:07:16;;;;;;;14.05;5.13;;;;;;;9.49;100.00;101549.69;5105846;28;20116;-70
2024/02/21 09:10:05;;;;;;;12.15;4.93;;;;;;;9.52;100.00;101553.81;5116113;28;20127;-70
2024/02/21 09:12:53;;;;;;;14.75;5.10;;;;;;;9.53;100.00;101550.06;5100584;28;20051;-70
2024/02/21 09:15:41;;;;;;;13.75;5.00;;;;;;;9.50;100.00;101555.97;5114277;28;20062;-70
2024/02/21 09:18:29;;;;;;;13.48;5.40;;;;;;;9.63;100.00;101552.97;5085826;28;20122;-70
2024/02/21 09:21:17;;;;;;;11.57;4.97;;;;;;;9.71;100.00;101552.56;5115894;28;20074;-70
2024/02/21 09:24:08;;;;;;;11.68;4.95;;;;;;;9.67;100.00;101550.56;5114601;28;20047;-70
2024/02/21 09:26:56;;;;;;;13.32;4.78;;;;;;;9.65;100.00;101541.84;5098996;28;20064;-70
2024/02/21 09:29:44;;;;;;;9.43;4.55;;;;;;;9.64;100.00;101546.44;5098543;28;20048;-69
2024/02/21 09:32:32;;;;;;;13.27;5.30;;;;;;;9.86;100.00;101551.19;5114086;28;20120;-70
2024/02/21 09:35:26;;;;;;;11.85;4.38;;;;;;;10.11;100.00;101546.19;5098632;28;20044;-71
2024/02/21 09:38:14;;;;;;;9.57;4.10;;;;;;;10.02;100.00;101542.19;5114855;28;20404;-70
2024/02/21 09:41:17;;;;;;;13.85;4.70;;;;;;;10.12;100.00;101525.22;5086266;28;20082;-71
2024/02/21 09:44:14;;;;;;;10.82;4.35;;;;;;;10.05;100.00;101519.91;5101404;28;20047;-70
2024/02/21 09:47:17;;;;;;;11.05;4.35;;;;;;;9.81;100.00;101522.81;5100247;28;20419;-70
2024/02/21 09:50:05;;;;;;;9.73;4.45;;;;;;;9.67;100.00;101513.31;5086100;27;20074;-70
2024/02/21 09:52:55;;;;;;;12.07;4.10;;;;;;;9.69;100.00;101504.88;5105783;27;20062;-70
2024/02/21 09:55:44;;;;;;;8.70;4.43;;;;;;;9.59;100.00;101495.47;5117339;27;20050;-70
2024/02/21 09:58:33;;;;;;;10.05;4.43;;;;;;;9.63;100.00;101490.38;5115535;27;20055;-70
2024/02/21 10:01:21;;;;;;;10.35;4.38;;;;;;;9.62;100.00;101491.47;5085583;28;20051;-71
2024/02/21 10:04:22;;;;;;;8.85;4.35;;;;;;;9.52;100.00;101472.22;5100667;28;20421;-70
2024/02/21 10:07:11;;;;;;;9.15;4.13;;;;;;;9.51;100.00;101470.56;5116507;27;20051;-70
2024/02/21 10:10:07;;;;;;;8.77;4.13;;;;;;;9.51;100.00;101470.56;5094015;27;20039;-71
2024/02/21 10:13:02;;;;;;;9.90;4.45;;;;;;;9.66;100.00;101457.22;5107784;28;20433;-70
2024/02/21 10:16:00;;;;;;;11.15;4.40;;;;;;;9.68;100.00;101449.66;5113565;28;20040;-70
2024/02/21 10:18:53;;;;;;;8.65;4.38;;;;;;;9.64;100.00;101429.44;5071803;28;20117;-71
2024/02/21 10:21:41;;;;;;;10.10;4.10;;;;;;;9.61;100.00;101429.94;5099744;27;20067;-71
2024/02/21 10:24:30;;;;;;;10.18;4.85;;;;;;;9.75;100.00;101427.72;5112703;28;20039;-70
2024/02/21 10:27:18;;;;;;;9.40;4.32;;;;;;;9.62;100.00;101412.56;5099227;28;20096;-71
2024/02/21 10:30:14;;;;;;;9.55;4.45;;;;;;;9.76;100.00;101413.84;5112935;28;20510;-71
2024/02/21 10:33:03;;;;;;;11.63;4.55;;;;;;;9.81;100.00;101410.38;5073444;28;20415;-71
2024/02/21 10:35:51;;;;;;;13.57;5.45;;;;;;;9.68;100.00;101403.38;5097205;27;20120;-73
2024/02/21 10:38:39;;;;;;;11.02;5.03;;;;;;;9.39;100.00;101391.75;5065663;28;20044;-70
2024/02/21 10:41:27;;;;;;;15.02;5.60;;;;;;;9.23;100.00;101389.84;5078888;28;20451;-70
2024/02/21 10:44:17;;;;;;;12.82;5.75;;;;;;;9.18;100.00;101376.97;5073076;28;20044;-70
2024/02/21 10:47:13;;;;;;;12.13;5.75;;;;;;;9.26;100.00;101357.56;5084201;28;20400;-71
2024/02/21 10:50:05;;;;;;;15.57;5.10;;;;;;;9.26;100.00;101354.84;5075255;28;20507;-69
2024/02/21 10:53:15;;;;;;;13.02;5.50;;;;;;;9.24;100.00;101337.13;5046630;28;20052;-70
2024/02/21 10:56:31;;;;;;;13.25;5.35;;;;;;;9.27;100.00;101315.69;5097419;28;20515;-71
2024/02/21 10:59:19;;;;;;;11.80;5.15;;;;;;;9.28;100.00;101303.72;5097965;28;20517;-70
2024/02/21 11:02:07;;;;;;;14.27;5.57;;;;;;;9.28;100.00;101298.28;5075554;28;20122;-70
2024/02/21 11:04:55;;;;;;;11.35;5.22;;;;;;;9.31;100.00;101311.41;5096813;28;20411;-69
2024/02/21 11:07:44;;;;;;;14.35;5.75;;;;;;;9.35;100.00;101320.69;5111932;28;20048;-70
2024/02/21 11:10:32;;;;;;;10.10;4.07;;;;;;;9.47;100.00;101327.97;5076385;28;20040;-71
2024/02/21 11:13:40;;;;;;;15.63;4.90;;;;;;;9.76;100.00;101320.50;5076443;28;20115;-71
2024/02/21 11:16:28;;;;;;;19.83;6.68;;;;;;;9.91;100.00;101322.63;5097194;28;20084;-71
2024/02/21 11:19:27;;;;;;;13.70;5.40;;;;;;;10.00;100.00;101321.09;5071072;28;20039;-71
2024/02/21 11:22:24;;;;;;;10.35;4.13;;;;;;;9.68;100.00;101304.63;5073486;28;20400;-71
2024/02/21 11:25:13;;;;;;;13.23;5.13;;;;;;;9.54;100.00;101306.84;5064825;28;20060;-71
2024/02/21 11:28:01;;;;;;;11.77;4.90;;;;;;;9.50;100.00;101305.69;4713367;28;9999868;-70
2024/02/21 11:30:51;;;;;;;13.63;4.90;;;;;;;9.46;100.00;101293.69;5059328;28;20052;-71
2024/02/21 11:33:43;;;;;;;11.60;4.97;;;;;;;9.62;100.00;101287.41;5077091;28;20040;-72
2024/02/21 11:36:31;;;;;;;19.70;6.68;;;;;;;9.77;100.00;101265.84;5066000;28;20567;-71
2024/02/21 11:39:26;;;;;;;15.48;5.82;;;;;;;10.02;100.00;101259.88;5094744;28;20043;-72
2024/02/21 11:42:14;;;;;;;14.93;6.13;;;;;;;10.07;100.00;101263.75;5075824;28;20217;-71
2024/02/21 11:45:06;;;;;;;12.00;4.82;;;;;;;9.89;100.00;101264.91;5074556;28;20100;-71
2024/02/21 11:47:54;;;;;;;15.57;5.85;;;;;;;9.88;100.00;101252.34;5074293;28;20055;-71
2024/02/21 11:50:42;;;;;;;13.43;5.72;;;;;;;10.02;100.00;101249.00;5060453;28;20105;-71
2024/02/21 11:53:30;;;;;;;16.88;5.85;;;;;;;10.20;100.00;101239.69;5091762;28;20067;-71
2024/02/21 11:56:22;;;;;;;19.23;7.25;;;;;;;10.17;100.00;101234.75;5081137;28;20055;-72
2024/02/21 11:59:12;;;;;;;11.05;4.35;;;;;;;9.95;100.00;101225.78;5095196;28;20067;-73
2024/02/21 12:02:00;;;;;;;15.73;6.50;;;;;;;10.01;100.00;101219.31;5108808;28;20117;-71
2024/02/21 12:04:49;;;;;;;17.70;7.25;;;;;;;10.08;100.00;101189.16;5077633;28;20423;-71
2024/02/21 12:07:40;;;;;;;20.08;7.45;;;;;;;10.18;100.00;101164.78;5078062;28;20055;-72
2024/02/21 12:10:28;;;;;;;18.67;8.05;;;;;;;10.38;100.00;101164.19;5085319;27;20075;-72
2024/02/21 12:13:16;;;;;;;23.60;8.68;;;;;;;10.52;100.00;101150.97;5098330;28;20036;-72
2024/02/21 12:16:05;;;;;;;15.77;6.30;;;;;;;10.40;100.00;101153.84;5079126;27;20090;-72
2024/02/21 12:18:53;;;;;;;19.08;7.43;;;;;;;10.51;100.00;101141.97;5083114;28;20397;-73
2024/02/21 12:21:42;;;;;;;20.65;7.47;;;;;;;10.65;100.00;101131.44;5112996;28;20036;-72
2024/02/21 12:24:30;;;;;;;20.17;8.45;;;;;;;10.48;100.00;101125.31;5097539;28;20151;-72
2024/02/21 12:27:18;;;;;;;23.27;8.98;;;;;;;10.65;100.00;101121.38;5089912;28;20048;-72
2024/02/21 12:30:09;;;;;;;14.55;6.00;;;;;;;10.68;100.00;101108.28;5111421;28;20503;-71
2024/02/21 12:32:59;;;;;;;18.50;6.82;;;;;;;10.65;100.00;101105.03;5096368;28;20415;-71
2024/02/21 12:35:49;;;;;;;14.88;5.90;;;;;;;10.68;100.00;101087.34;5057242;27;20046;-71
2024/02/21 12:38:37;;;;;;;16.67;5.82;;;;;;;10.57;100.00;101078.25;5103951;28;20120;-71
2024/02/21 12:41:26;;;;;;;19.42;7.95;;;;;;;10.63;100.00;101069.03;5097805;28;20043;-74
2024/02/21 12:44:16;;;;;;;14.43;4.38;;;;;;;10.31;100.00;101074.50;5100560;28;20044;-72
2024/02/21 12:47:04;;;;;;;9.10;4.20;;;;;;;10.20;100.00;101054.53;5094198;27;20058;-70
2024/02/21 12:49:53;;;;;;;10.07;3.65;;;;;;;10.19;100.00;101047.41;5119947;27;20043;-71
2024/02/21 12:52:41;;;;;;;10.27;3.95;;;;;;;10.15;100.00;101032.69;5125517;28;20036;-71
2024/02/21 12:55:29;;;;;;;15.93;5.88;;;;;;;10.62;100.00;101031.97;5117495;28;20043;-70
2024/02/21 12:58:18;;;;;;;13.93;5.57;;;;;;;10.71;100.00;101015.94;5126156;28;20063;-70